sensor_id;sensor_type;location;lat;lon;timestamp;P1;durP1;ratioP1;P2;durP2;ratioP2
53652;SDS011;39553;52.954;5.932;2023-05-07T00:00:21;30.23;;;19.42;;
53652;SDS011;39553;52.954;5.932;2023-05-07T00:02:47;34.38;;;18.85;;
53652;SDS011;39553;52.954;5.932;2023-05-07T00:05:13;35.55;;;20.05;;
53652;SDS011;39553;52.954;5.932;2023-05-07T00:07:39;32.95;;;19.85;;
53652;SDS011;39553;52.954;5.932;2023-05-07T00:10:05;29.33;;;17.90;;
53652;SDS011;39553;52.954;5.932;2023-05-07T00:12:32;38.58;;;19.88;;
53652;SDS011;39553;52.954;5.932;2023-05-07T00:15:02;30.02;;;17.60;;
53652;SDS011;39553;52.954;5.932;2023-05-07T00:17:29;31.08;;;18.52;;
53652;SDS011;39553;52.954;5.932;2023-05-07T00:19:55;32.60;;;18.83;;
53652;SDS011;39553;52.954;5.932;2023-05-07T00:22:21;30.25;;;17.88;;
53652;SDS011;39553;52.954;5.932;2023-05-07T00:24:47;34.50;;;20.30;;
53652;SDS011;39553;52.954;5.932;2023-05-07T00:27:12;32.53;;;18.60;;
53652;SDS011;39553;52.954;5.932;2023-05-07T00:29:38;33.15;;;19.38;;
53652;SDS011;39553;52.954;5.932;2023-05-07T00:32:04;34.22;;;19.48;;
53652;SDS011;39553;52.954;5.932;2023-05-07T00:34:30;35.65;;;19.33;;
53652;SDS011;39553;52.954;5.932;2023-05-07T00:36:56;29.52;;;18.85;;
53652;SDS011;39553;52.954;5.932;2023-05-07T00:39:22;35.13;;;18.65;;
53652;SDS011;39553;52.954;5.932;2023-05-07T00:41:48;32.90;;;19.52;;
53652;SDS011;39553;52.954;5.932;2023-05-07T00:44:13;32.38;;;19.38;;
53652;SDS011;39553;52.954;5.932;2023-05-07T00:46:39;34.42;;;20.75;;
53652;SDS011;39553;52.954;5.932;2023-05-07T00:49:05;33.17;;;20.30;;
53652;SDS011;39553;52.954;5.932;2023-05-07T00:51:32;32.95;;;19.63;;
53652;SDS011;39553;52.954;5.932;2023-05-07T00:53:59;31.63;;;19.80;;
53652;SDS011;39553;52.954;5.932;2023-05-07T00:56:27;34.35;;;18.80;;
53652;SDS011;39553;52.954;5.932;2023-05-07T00:58:53;32.75;;;21.63;;
53652;SDS011;39553;52.954;5.932;2023-05-07T01:01:19;30.55;;;20.00;;
53652;SDS011;39553;52.954;5.932;2023-05-07T01:03:45;42.10;;;21.77;;
53652;SDS011;39553;52.954;5.932;2023-05-07T01:06:11;30.90;;;20.05;;
53652;SDS011;39553;52.954;5.932;2023-05-07T01:08:41;41.78;;;20.83;;
53652;SDS011;39553;52.954;5.932;2023-05-07T01:11:08;33.55;;;21.13;;
53652;SDS011;39553;52.954;5.932;2023-05-07T01:13:34;39.83;;;21.27;;
53652;SDS011;39553;52.954;5.932;2023-05-07T01:16:02;38.47;;;22.10;;
53652;SDS011;39553;52.954;5.932;2023-05-07T01:18:30;33.13;;;20.52;;
53652;SDS011;39553;52.954;5.932;2023-05-07T01:20:57;34.72;;;21.42;;
53652;SDS011;39553;52.954;5.932;2023-05-07T01:23:23;31.40;;;19.67;;
53652;SDS011;39553;52.954;5.932;2023-05-07T01:25:51;28.17;;;17.27;;
53652;SDS011;39553;52.954;5.932;2023-05-07T01:28:20;30.23;;;19.35;;
53652;SDS011;39553;52.954;5.932;2023-05-07T01:30:51;36.25;;;20.13;;
53652;SDS011;39553;52.954;5.932;2023-05-07T01:33:21;30.35;;;19.65;;
53652;SDS011;39553;52.954;5.932;2023-05-07T01:35:48;29.98;;;19.23;;
53652;SDS011;39553;52.954;5.932;2023-05-07T01:38:16;29.20;;;18.30;;
53652;SDS011;39553;52.954;5.932;2023-05-07T01:40:43;31.88;;;19.75;;
53652;SDS011;39553;52.954;5.932;2023-05-07T01:43:09;23.77;;;15.70;;
53652;SDS011;39553;52.954;5.932;2023-05-07T01:45:35;27.52;;;16.42;;
53652;SDS011;39553;52.954;5.932;2023-05-07T01:48:02;27.15;;;15.80;;
53652;SDS011;39553;52.954;5.932;2023-05-07T01:50:28;23.20;;;14.93;;
53652;SDS011;39553;52.954;5.932;2023-05-07T01:52:55;25.05;;;15.20;;
53652;SDS011;39553;52.954;5.932;2023-05-07T01:55:21;25.20;;;15.57;;
53652;SDS011;39553;52.954;5.932;2023-05-07T01:57:47;26.27;;;16.20;;
53652;SDS011;39553;52.954;5.932;2023-05-07T02:00:14;25.27;;;15.95;;
53652;SDS011;39553;52.954;5.932;2023-05-07T02:02:41;31.38;;;15.75;;
53652;SDS011;39553;52.954;5.932;2023-05-07T02:05:06;23.92;;;16.38;;
53652;SDS011;39553;52.954;5.932;2023-05-07T02:07:33;25.73;;;16.80;;
53652;SDS011;39553;52.954;5.932;2023-05-07T02:09:59;29.63;;;15.82;;
53652;SDS011;39553;52.954;5.932;2023-05-07T02:12:24;26.45;;;15.38;;
53652;SDS011;39553;52.954;5.932;2023-05-07T02:14:50;26.75;;;14.70;;
53652;SDS011;39553;52.954;5.932;2023-05-07T02:17:16;23.00;;;15.18;;
53652;SDS011;39553;52.954;5.932;2023-05-07T02:19:42;23.70;;;14.80;;
53652;SDS011;39553;52.954;5.932;2023-05-07T02:22:09;22.63;;;15.40;;
53652;SDS011;39553;52.954;5.932;2023-05-07T02:24:35;23.77;;;15.23;;
53652;SDS011;39553;52.954;5.932;2023-05-07T02:27:00;27.10;;;15.80;;
53652;SDS011;39553;52.954;5.932;2023-05-07T02:29:28;22.80;;;13.55;;
53652;SDS011;39553;52.954;5.932;2023-05-07T02:31:54;23.05;;;15.30;;
53652;SDS011;39553;52.954;5.932;2023-05-07T02:34:20;25.73;;;15.35;;
53652;SDS011;39553;52.954;5.932;2023-05-07T02:36:46;25.60;;;16.25;;
53652;SDS011;39553;52.954;5.932;2023-05-07T02:39:13;26.50;;;16.23;;
53652;SDS011;39553;52.954;5.932;2023-05-07T02:41:39;26.17;;;16.23;;
53652;SDS011;39553;52.954;5.932;2023-05-07T02:44:04;26.75;;;17.30;;
53652;SDS011;39553;52.954;5.932;2023-05-07T02:46:31;26.85;;;16.67;;
53652;SDS011;39553;52.954;5.932;2023-05-07T02:48:57;26.67;;;17.60;;
53652;SDS011;39553;52.954;5.932;2023-05-07T02:51:22;30.75;;;19.20;;
53652;SDS011;39553;52.954;5.932;2023-05-07T02:53:48;27.45;;;18.90;;
53652;SDS011;39553;52.954;5.932;2023-05-07T02:56:14;29.08;;;19.00;;
53652;SDS011;39553;52.954;5.932;2023-05-07T02:58:40;29.98;;;18.63;;
53652;SDS011;39553;52.954;5.932;2023-05-07T03:01:09;30.90;;;20.77;;
53652;SDS011;39553;52.954;5.932;2023-05-07T03:03:35;34.22;;;20.08;;
53652;SDS011;39553;52.954;5.932;2023-05-07T03:06:01;30.17;;;18.80;;
53652;SDS011;39553;52.954;5.932;2023-05-07T03:08:27;31.75;;;20.50;;
53652;SDS011;39553;52.954;5.932;2023-05-07T03:10:53;29.90;;;20.50;;
53652;SDS011;39553;52.954;5.932;2023-05-07T03:13:19;31.10;;;20.85;;
53652;SDS011;39553;52.954;5.932;2023-05-07T03:15:45;32.17;;;19.60;;
53652;SDS011;39553;52.954;5.932;2023-05-07T03:18:11;33.70;;;21.80;;
53652;SDS011;39553;52.954;5.932;2023-05-07T03:20:37;28.42;;;19.70;;
53652;SDS011;39553;52.954;5.932;2023-05-07T03:23:03;33.05;;;21.35;;
53652;SDS011;39553;52.954;5.932;2023-05-07T03:25:29;32.42;;;21.05;;
53652;SDS011;39553;52.954;5.932;2023-05-07T03:27:56;32.70;;;22.02;;
53652;SDS011;39553;52.954;5.932;2023-05-07T03:30:22;32.90;;;20.90;;
53652;SDS011;39553;52.954;5.932;2023-05-07T03:32:48;33.72;;;21.52;;
53652;SDS011;39553;52.954;5.932;2023-05-07T03:35:14;32.92;;;22.23;;
53652;SDS011;39553;52.954;5.932;2023-05-07T03:37:40;37.97;;;22.17;;
53652;SDS011;39553;52.954;5.932;2023-05-07T03:40:06;31.35;;;20.08;;
53652;SDS011;39553;52.954;5.932;2023-05-07T03:42:33;32.75;;;20.20;;
53652;SDS011;39553;52.954;5.932;2023-05-07T03:44:59;31.67;;;20.40;;
53652;SDS011;39553;52.954;5.932;2023-05-07T03:47:24;37.50;;;22.02;;
53652;SDS011;39553;52.954;5.932;2023-05-07T03:49:50;34.63;;;20.40;;
53652;SDS011;39553;52.954;5.932;2023-05-07T03:52:18;33.53;;;22.15;;
53652;SDS011;39553;52.954;5.932;2023-05-07T03:54:48;38.03;;;21.27;;
53652;SDS011;39553;52.954;5.932;2023-05-07T03:57:14;38.03;;;22.17;;
53652;SDS011;39553;52.954;5.932;2023-05-07T03:59:40;37.42;;;21.92;;
53652;SDS011;39553;52.954;5.932;2023-05-07T04:02:06;35.10;;;22.95;;
53652;SDS011;39553;52.954;5.932;2023-05-07T04:04:32;37.13;;;22.88;;
53652;SDS011;39553;52.954;5.932;2023-05-07T04:06:58;33.25;;;21.40;;
53652;SDS011;39553;52.954;5.932;2023-05-07T04:09:25;36.65;;;22.25;;
53652;SDS011;39553;52.954;5.932;2023-05-07T04:11:51;40.15;;;22.67;;
53652;SDS011;39553;52.954;5.932;2023-05-07T04:14:17;38.35;;;22.52;;
53652;SDS011;39553;52.954;5.932;2023-05-07T04:16:42;37.38;;;22.48;;
53652;SDS011;39553;52.954;5.932;2023-05-07T04:19:08;36.78;;;23.00;;
53652;SDS011;39553;52.954;5.932;2023-05-07T04:21:34;35.92;;;23.10;;
53652;SDS011;39553;52.954;5.932;2023-05-07T04:24:00;36.72;;;22.88;;
53652;SDS011;39553;52.954;5.932;2023-05-07T04:26:26;37.30;;;24.00;;
53652;SDS011;39553;52.954;5.932;2023-05-07T04:28:51;35.65;;;22.23;;
53652;SDS011;39553;52.954;5.932;2023-05-07T04:31:17;35.10;;;20.73;;
53652;SDS011;39553;52.954;5.932;2023-05-07T04:33:43;37.50;;;22.25;;
53652;SDS011;39553;52.954;5.932;2023-05-07T04:36:09;36.97;;;22.17;;
53652;SDS011;39553;52.954;5.932;2023-05-07T04:38:36;38.88;;;22.58;;
53652;SDS011;39553;52.954;5.932;2023-05-07T04:41:03;42.33;;;24.00;;
53652;SDS011;39553;52.954;5.932;2023-05-07T04:43:30;40.45;;;24.27;;
53652;SDS011;39553;52.954;5.932;2023-05-07T04:45:56;38.85;;;24.05;;
53652;SDS011;39553;52.954;5.932;2023-05-07T04:48:22;43.83;;;24.17;;
53652;SDS011;39553;52.954;5.932;2023-05-07T04:50:48;45.40;;;25.40;;
53652;SDS011;39553;52.954;5.932;2023-05-07T04:53:17;40.53;;;23.25;;
53652;SDS011;39553;52.954;5.932;2023-05-07T04:55:43;42.78;;;24.55;;
53652;SDS011;39553;52.954;5.932;2023-05-07T04:58:10;40.20;;;24.35;;
53652;SDS011;39553;52.954;5.932;2023-05-07T05:00:37;41.83;;;25.95;;
53652;SDS011;39553;52.954;5.932;2023-05-07T05:03:06;46.80;;;24.90;;
53652;SDS011;39553;52.954;5.932;2023-05-07T05:05:32;44.53;;;25.38;;
53652;SDS011;39553;52.954;5.932;2023-05-07T05:07:58;41.05;;;25.30;;
53652;SDS011;39553;52.954;5.932;2023-05-07T05:10:24;46.47;;;25.85;;
53652;SDS011;39553;52.954;5.932;2023-05-07T05:12:50;43.97;;;26.77;;
53652;SDS011;39553;52.954;5.932;2023-05-07T05:15:16;41.85;;;18.70;;
53652;SDS011;39553;52.954;5.932;2023-05-07T05:17:42;44.42;;;25.35;;
53652;SDS011;39553;52.954;5.932;2023-05-07T05:20:08;52.80;;;27.67;;
53652;SDS011;39553;52.954;5.932;2023-05-07T05:22:35;42.95;;;26.75;;
53652;SDS011;39553;52.954;5.932;2023-05-07T05:25:01;46.60;;;26.63;;
53652;SDS011;39553;52.954;5.932;2023-05-07T05:27:28;42.78;;;24.92;;
53652;SDS011;39553;52.954;5.932;2023-05-07T05:29:54;44.67;;;26.92;;
53652;SDS011;39553;52.954;5.932;2023-05-07T05:32:22;47.17;;;27.20;;
53652;SDS011;39553;52.954;5.932;2023-05-07T05:34:48;47.42;;;27.70;;
53652;SDS011;39553;52.954;5.932;2023-05-07T05:37:14;49.65;;;27.70;;
53652;SDS011;39553;52.954;5.932;2023-05-07T05:39:40;43.20;;;26.20;;
53652;SDS011;39553;52.954;5.932;2023-05-07T05:42:07;42.58;;;25.67;;
53652;SDS011;39553;52.954;5.932;2023-05-07T05:44:33;46.67;;;27.42;;
53652;SDS011;39553;52.954;5.932;2023-05-07T05:46:59;48.88;;;27.50;;
53652;SDS011;39553;52.954;5.932;2023-05-07T05:49:25;46.78;;;27.13;;
53652;SDS011;39553;52.954;5.932;2023-05-07T05:51:55;43.75;;;26.00;;
53652;SDS011;39553;52.954;5.932;2023-05-07T05:54:21;47.55;;;26.35;;
53652;SDS011;39553;52.954;5.932;2023-05-07T05:56:47;41.97;;;25.35;;
53652;SDS011;39553;52.954;5.932;2023-05-07T05:59:13;44.83;;;26.05;;
53652;SDS011;39553;52.954;5.932;2023-05-07T06:01:39;43.08;;;25.65;;
53652;SDS011;39553;52.954;5.932;2023-05-07T06:04:05;47.13;;;26.85;;
53652;SDS011;39553;52.954;5.932;2023-05-07T06:06:34;42.05;;;25.95;;
53652;SDS011;39553;52.954;5.932;2023-05-07T06:09:00;44.45;;;26.55;;
53652;SDS011;39553;52.954;5.932;2023-05-07T06:11:26;44.42;;;27.02;;
53652;SDS011;39553;52.954;5.932;2023-05-07T06:14:09;43.58;;;24.77;;
53652;SDS011;39553;52.954;5.932;2023-05-07T06:16:50;43.17;;;25.40;;
53652;SDS011;39553;52.954;5.932;2023-05-07T06:19:17;42.97;;;26.10;;
53652;SDS011;39553;52.954;5.932;2023-05-07T06:21:50;36.47;;;24.33;;
53652;SDS011;39553;52.954;5.932;2023-05-07T06:24:16;41.55;;;25.40;;
53652;SDS011;39553;52.954;5.932;2023-05-07T06:26:42;41.95;;;24.95;;
53652;SDS011;39553;52.954;5.932;2023-05-07T06:29:08;38.08;;;25.58;;
53652;SDS011;39553;52.954;5.932;2023-05-07T06:31:34;42.63;;;26.50;;
53652;SDS011;39553;52.954;5.932;2023-05-07T06:34:00;47.95;;;26.77;;
53652;SDS011;39553;52.954;5.932;2023-05-07T06:36:29;36.95;;;23.52;;
53652;SDS011;39553;52.954;5.932;2023-05-07T06:38:55;46.78;;;24.48;;
53652;SDS011;39553;52.954;5.932;2023-05-07T06:41:21;43.53;;;24.92;;
53652;SDS011;39553;52.954;5.932;2023-05-07T06:43:47;41.03;;;24.45;;
53652;SDS011;39553;52.954;5.932;2023-05-07T06:46:13;35.72;;;23.88;;
53652;SDS011;39553;52.954;5.932;2023-05-07T06:48:40;37.67;;;22.80;;
53652;SDS011;39553;52.954;5.932;2023-05-07T06:51:06;34.50;;;21.25;;
53652;SDS011;39553;52.954;5.932;2023-05-07T06:53:32;30.10;;;20.00;;
53652;SDS011;39553;52.954;5.932;2023-05-07T06:55:59;29.67;;;20.20;;
53652;SDS011;39553;52.954;5.932;2023-05-07T06:58:26;30.35;;;20.70;;
53652;SDS011;39553;52.954;5.932;2023-05-07T07:00:52;33.88;;;20.70;;
53652;SDS011;39553;52.954;5.932;2023-05-07T07:03:18;30.23;;;20.35;;
53652;SDS011;39553;52.954;5.932;2023-05-07T07:05:52;36.40;;;22.27;;
53652;SDS011;39553;52.954;5.932;2023-05-07T07:08:18;32.35;;;20.95;;
53652;SDS011;39553;52.954;5.932;2023-05-07T07:10:46;28.88;;;18.48;;
53652;SDS011;39553;52.954;5.932;2023-05-07T07:13:12;33.50;;;21.27;;
53652;SDS011;39553;52.954;5.932;2023-05-07T07:15:38;30.08;;;21.92;;
53652;SDS011;39553;52.954;5.932;2023-05-07T07:18:05;30.65;;;21.70;;
53652;SDS011;39553;52.954;5.932;2023-05-07T07:20:33;29.42;;;20.30;;
53652;SDS011;39553;52.954;5.932;2023-05-07T07:22:59;26.75;;;19.13;;
53652;SDS011;39553;52.954;5.932;2023-05-07T07:25:24;32.10;;;19.77;;
53652;SDS011;39553;52.954;5.932;2023-05-07T07:27:51;28.20;;;19.45;;
53652;SDS011;39553;52.954;5.932;2023-05-07T07:30:16;27.98;;;20.48;;
53652;SDS011;39553;52.954;5.932;2023-05-07T07:32:52;28.58;;;19.95;;
53652;SDS011;39553;52.954;5.932;2023-05-07T07:35:19;29.98;;;19.80;;
53652;SDS011;39553;52.954;5.932;2023-05-07T07:37:45;26.95;;;20.20;;
53652;SDS011;39553;52.954;5.932;2023-05-07T07:40:12;27.42;;;19.23;;
53652;SDS011;39553;52.954;5.932;2023-05-07T07:42:38;29.40;;;19.75;;
53652;SDS011;39553;52.954;5.932;2023-05-07T07:45:04;29.27;;;21.10;;
53652;SDS011;39553;52.954;5.932;2023-05-07T07:47:30;28.48;;;19.40;;
53652;SDS011;39553;52.954;5.932;2023-05-07T07:49:59;27.35;;;18.00;;
53652;SDS011;39553;52.954;5.932;2023-05-07T07:52:25;31.23;;;19.60;;
53652;SDS011;39553;52.954;5.932;2023-05-07T07:54:51;25.65;;;19.65;;
53652;SDS011;39553;52.954;5.932;2023-05-07T07:57:17;25.35;;;18.98;;
53652;SDS011;39553;52.954;5.932;2023-05-07T07:59:43;28.85;;;19.65;;
53652;SDS011;39553;52.954;5.932;2023-05-07T08:02:09;23.08;;;17.73;;
53652;SDS011;39553;52.954;5.932;2023-05-07T08:04:35;28.05;;;19.27;;
53652;SDS011;39553;52.954;5.932;2023-05-07T08:07:03;28.08;;;20.17;;
53652;SDS011;39553;52.954;5.932;2023-05-07T08:09:31;26.00;;;17.55;;
53652;SDS011;39553;52.954;5.932;2023-05-07T08:12:11;25.50;;;17.60;;
53652;SDS011;39553;52.954;5.932;2023-05-07T08:14:40;24.75;;;17.92;;
53652;SDS011;39553;52.954;5.932;2023-05-07T08:17:06;23.45;;;16.73;;
53652;SDS011;39553;52.954;5.932;2023-05-07T08:19:34;27.73;;;21.23;;
53652;SDS011;39553;52.954;5.932;2023-05-07T08:22:00;24.38;;;18.95;;
53652;SDS011;39553;52.954;5.932;2023-05-07T08:24:28;24.52;;;18.52;;
53652;SDS011;39553;52.954;5.932;2023-05-07T08:26:54;24.15;;;17.35;;
53652;SDS011;39553;52.954;5.932;2023-05-07T08:29:19;26.27;;;17.60;;
53652;SDS011;39553;52.954;5.932;2023-05-07T08:31:45;26.45;;;18.75;;
53652;SDS011;39553;52.954;5.932;2023-05-07T08:34:11;26.90;;;19.02;;
53652;SDS011;39553;52.954;5.932;2023-05-07T08:36:37;24.40;;;17.83;;
53652;SDS011;39553;52.954;5.932;2023-05-07T08:39:03;26.35;;;18.05;;
53652;SDS011;39553;52.954;5.932;2023-05-07T08:41:30;26.77;;;18.70;;
53652;SDS011;39553;52.954;5.932;2023-05-07T08:43:59;25.23;;;18.50;;
53652;SDS011;39553;52.954;5.932;2023-05-07T08:46:31;23.60;;;17.83;;
53652;SDS011;39553;52.954;5.932;2023-05-07T08:48:57;27.67;;;17.90;;
53652;SDS011;39553;52.954;5.932;2023-05-07T08:51:25;26.70;;;17.85;;
53652;SDS011;39553;52.954;5.932;2023-05-07T08:53:50;23.17;;;17.45;;
53652;SDS011;39553;52.954;5.932;2023-05-07T08:56:16;27.80;;;18.83;;
53652;SDS011;39553;52.954;5.932;2023-05-07T08:58:43;25.92;;;18.83;;
53652;SDS011;39553;52.954;5.932;2023-05-07T09:01:10;24.77;;;18.17;;
53652;SDS011;39553;52.954;5.932;2023-05-07T09:03:39;22.48;;;18.20;;
53652;SDS011;39553;52.954;5.932;2023-05-07T09:06:06;23.65;;;18.90;;
53652;SDS011;39553;52.954;5.932;2023-05-07T09:08:50;24.35;;;18.80;;
53652;SDS011;39553;52.954;5.932;2023-05-07T09:11:19;22.15;;;17.58;;
53652;SDS011;39553;52.954;5.932;2023-05-07T09:13:52;21.33;;;17.98;;
53652;SDS011;39553;52.954;5.932;2023-05-07T09:16:20;23.50;;;18.45;;
53652;SDS011;39553;52.954;5.932;2023-05-07T09:18:48;24.05;;;18.20;;
53652;SDS011;39553;52.954;5.932;2023-05-07T09:21:17;25.63;;;18.70;;
53652;SDS011;39553;52.954;5.932;2023-05-07T09:23:44;26.08;;;19.65;;
53652;SDS011;39553;52.954;5.932;2023-05-07T09:26:16;24.98;;;19.15;;
53652;SDS011;39553;52.954;5.932;2023-05-07T09:28:43;24.02;;;19.95;;
53652;SDS011;39553;52.954;5.932;2023-05-07T09:31:09;23.67;;;18.73;;
53652;SDS011;39553;52.954;5.932;2023-05-07T09:33:36;22.33;;;18.52;;
53652;SDS011;39553;52.954;5.932;2023-05-07T09:36:03;26.48;;;19.55;;
53652;SDS011;39553;52.954;5.932;2023-05-07T09:38:30;26.83;;;20.02;;
53652;SDS011;39553;52.954;5.932;2023-05-07T09:41:01;23.45;;;18.05;;
53652;SDS011;39553;52.954;5.932;2023-05-07T09:43:37;23.23;;;18.80;;
53652;SDS011;39553;52.954;5.932;2023-05-07T09:46:14;26.05;;;20.50;;
53652;SDS011;39553;52.954;5.932;2023-05-07T09:48:42;26.90;;;19.00;;
53652;SDS011;39553;52.954;5.932;2023-05-07T09:51:32;23.50;;;18.98;;
53652;SDS011;39553;52.954;5.932;2023-05-07T09:54:05;26.77;;;19.08;;
53652;SDS011;39553;52.954;5.932;2023-05-07T09:56:32;25.70;;;18.65;;
53652;SDS011;39553;52.954;5.932;2023-05-07T09:59:00;24.98;;;19.40;;
53652;SDS011;39553;52.954;5.932;2023-05-07T10:01:26;27.67;;;20.05;;
53652;SDS011;39553;52.954;5.932;2023-05-07T10:03:53;27.38;;;19.45;;
53652;SDS011;39553;52.954;5.932;2023-05-07T10:06:20;26.13;;;18.70;;
53652;SDS011;39553;52.954;5.932;2023-05-07T10:08:47;26.13;;;18.73;;
53652;SDS011;39553;52.954;5.932;2023-05-07T10:11:14;26.15;;;20.00;;
53652;SDS011;39553;52.954;5.932;2023-05-07T10:13:41;26.83;;;17.95;;
53652;SDS011;39553;52.954;5.932;2023-05-07T10:16:08;29.48;;;18.65;;
53652;SDS011;39553;52.954;5.932;2023-05-07T10:18:34;27.67;;;19.80;;
53652;SDS011;39553;52.954;5.932;2023-05-07T10:23:41;24.95;;;19.38;;
53652;SDS011;39553;52.954;5.932;2023-05-07T10:28:43;26.70;;;19.88;;
53652;SDS011;39553;52.954;5.932;2023-05-07T10:34:12;27.17;;;18.90;;
53652;SDS011;39553;52.954;5.932;2023-05-07T10:36:43;27.40;;;20.15;;
53652;SDS011;39553;52.954;5.932;2023-05-07T10:39:10;28.65;;;21.80;;
53652;SDS011;39553;52.954;5.932;2023-05-07T10:41:36;29.10;;;20.45;;
53652;SDS011;39553;52.954;5.932;2023-05-07T10:44:02;29.73;;;21.30;;
53652;SDS011;39553;52.954;5.932;2023-05-07T10:46:30;26.55;;;20.00;;
53652;SDS011;39553;52.954;5.932;2023-05-07T10:51:26;24.73;;;18.92;;
53652;SDS011;39553;52.954;5.932;2023-05-07T10:56:41;26.25;;;20.13;;
53652;SDS011;39553;52.954;5.932;2023-05-07T11:01:56;24.27;;;19.13;;
53652;SDS011;39553;52.954;5.932;2023-05-07T11:04:24;24.95;;;20.23;;
53652;SDS011;39553;52.954;5.932;2023-05-07T11:07:20;26.52;;;20.58;;
53652;SDS011;39553;52.954;5.932;2023-05-07T11:15:01;30.40;;;20.83;;
53652;SDS011;39553;52.954;5.932;2023-05-07T11:17:29;29.45;;;20.35;;
53652;SDS011;39553;52.954;5.932;2023-05-07T11:20:00;23.33;;;17.33;;
53652;SDS011;39553;52.954;5.932;2023-05-07T11:25:01;25.70;;;19.83;;
53652;SDS011;39553;52.954;5.932;2023-05-07T11:27:27;24.73;;;19.02;;
53652;SDS011;39553;52.954;5.932;2023-05-07T11:29:58;27.15;;;19.40;;
53652;SDS011;39553;52.954;5.932;2023-05-07T11:32:31;26.58;;;19.05;;
53652;SDS011;39553;52.954;5.932;2023-05-07T11:34:59;23.53;;;19.80;;
53652;SDS011;39553;52.954;5.932;2023-05-07T11:37:26;19.52;;;15.85;;
53652;SDS011;39553;52.954;5.932;2023-05-07T11:40:05;21.80;;;17.40;;
53652;SDS011;39553;52.954;5.932;2023-05-07T11:42:36;22.65;;;16.58;;
53652;SDS011;39553;52.954;5.932;2023-05-07T11:45:03;24.08;;;15.80;;
53652;SDS011;39553;52.954;5.932;2023-05-07T11:47:32;21.10;;;16.98;;
53652;SDS011;39553;52.954;5.932;2023-05-07T11:50:05;20.52;;;15.82;;
53652;SDS011;39553;52.954;5.932;2023-05-07T11:52:36;21.77;;;17.55;;
53652;SDS011;39553;52.954;5.932;2023-05-07T11:55:04;19.17;;;15.68;;
53652;SDS011;39553;52.954;5.932;2023-05-07T11:57:30;20.30;;;15.95;;
53652;SDS011;39553;52.954;5.932;2023-05-07T11:59:58;21.60;;;17.75;;
53652;SDS011;39553;52.954;5.932;2023-05-07T12:02:29;23.20;;;17.23;;
53652;SDS011;39553;52.954;5.932;2023-05-07T12:04:56;20.73;;;16.92;;
53652;SDS011;39553;52.954;5.932;2023-05-07T12:07:23;21.70;;;17.35;;
53652;SDS011;39553;52.954;5.932;2023-05-07T12:09:51;20.05;;;17.35;;
53652;SDS011;39553;52.954;5.932;2023-05-07T12:12:18;23.35;;;16.75;;
53652;SDS011;39553;52.954;5.932;2023-05-07T12:14:44;20.52;;;16.02;;
53652;SDS011;39553;52.954;5.932;2023-05-07T12:17:11;18.15;;;14.02;;
53652;SDS011;39553;52.954;5.932;2023-05-07T12:19:39;19.60;;;13.55;;
53652;SDS011;39553;52.954;5.932;2023-05-07T12:22:07;19.25;;;14.95;;
53652;SDS011;39553;52.954;5.932;2023-05-07T12:27:13;20.77;;;17.13;;
53652;SDS011;39553;52.954;5.932;2023-05-07T12:29:43;20.38;;;15.70;;
53652;SDS011;39553;52.954;5.932;2023-05-07T12:32:13;20.40;;;16.55;;
53652;SDS011;39553;52.954;5.932;2023-05-07T12:34:40;22.00;;;15.95;;
53652;SDS011;39553;52.954;5.932;2023-05-07T12:37:06;23.08;;;16.42;;
53652;SDS011;39553;52.954;5.932;2023-05-07T12:39:32;21.83;;;16.88;;
53652;SDS011;39553;52.954;5.932;2023-05-07T12:41:58;22.02;;;16.08;;
53652;SDS011;39553;52.954;5.932;2023-05-07T12:44:25;20.00;;;16.20;;
53652;SDS011;39553;52.954;5.932;2023-05-07T12:49:30;20.73;;;15.48;;
53652;SDS011;39553;52.954;5.932;2023-05-07T12:51:56;19.38;;;14.77;;
53652;SDS011;39553;52.954;5.932;2023-05-07T12:54:32;21.58;;;15.57;;
53652;SDS011;39553;52.954;5.932;2023-05-07T12:57:06;18.77;;;14.68;;
53652;SDS011;39553;52.954;5.932;2023-05-07T12:59:34;20.45;;;14.57;;
53652;SDS011;39553;52.954;5.932;2023-05-07T13:02:04;19.30;;;14.50;;
53652;SDS011;39553;52.954;5.932;2023-05-07T13:04:30;19.20;;;15.23;;
53652;SDS011;39553;52.954;5.932;2023-05-07T13:06:56;19.77;;;15.55;;
53652;SDS011;39553;52.954;5.932;2023-05-07T13:09:22;19.73;;;15.20;;
53652;SDS011;39553;52.954;5.932;2023-05-07T13:11:48;24.63;;;16.88;;
53652;SDS011;39553;52.954;5.932;2023-05-07T13:14:14;20.58;;;16.20;;
53652;SDS011;39553;52.954;5.932;2023-05-07T13:16:40;19.73;;;14.95;;
53652;SDS011;39553;52.954;5.932;2023-05-07T13:19:06;23.40;;;14.82;;
53652;SDS011;39553;52.954;5.932;2023-05-07T13:21:32;16.25;;;12.80;;
53652;SDS011;39553;52.954;5.932;2023-05-07T13:23:59;17.95;;;14.43;;
53652;SDS011;39553;52.954;5.932;2023-05-07T13:26:25;21.65;;;15.88;;
53652;SDS011;39553;52.954;5.932;2023-05-07T13:28:54;21.00;;;13.55;;
53652;SDS011;39553;52.954;5.932;2023-05-07T13:31:20;18.20;;;15.18;;
53652;SDS011;39553;52.954;5.932;2023-05-07T13:33:47;19.52;;;15.27;;
53652;SDS011;39553;52.954;5.932;2023-05-07T13:36:13;18.92;;;15.18;;
53652;SDS011;39553;52.954;5.932;2023-05-07T13:38:39;20.15;;;15.98;;
53652;SDS011;39553;52.954;5.932;2023-05-07T13:41:05;17.80;;;14.07;;
53652;SDS011;39553;52.954;5.932;2023-05-07T13:43:31;21.15;;;14.52;;
53652;SDS011;39553;52.954;5.932;2023-05-07T13:45:58;19.75;;;16.23;;
53652;SDS011;39553;52.954;5.932;2023-05-07T13:48:25;19.92;;;14.10;;
53652;SDS011;39553;52.954;5.932;2023-05-07T13:50:51;19.95;;;15.38;;
53652;SDS011;39553;52.954;5.932;2023-05-07T13:53:17;20.00;;;14.32;;
53652;SDS011;39553;52.954;5.932;2023-05-07T13:55:44;19.80;;;14.48;;
53652;SDS011;39553;52.954;5.932;2023-05-07T13:58:10;19.15;;;15.35;;
53652;SDS011;39553;52.954;5.932;2023-05-07T14:00:36;20.92;;;13.68;;
53652;SDS011;39553;52.954;5.932;2023-05-07T14:03:04;15.07;;;11.65;;
53652;SDS011;39553;52.954;5.932;2023-05-07T14:05:30;17.23;;;14.05;;
53652;SDS011;39553;52.954;5.932;2023-05-07T14:07:56;18.42;;;12.50;;
53652;SDS011;39553;52.954;5.932;2023-05-07T14:10:23;17.25;;;13.93;;
53652;SDS011;39553;52.954;5.932;2023-05-07T14:12:52;16.95;;;12.73;;
53652;SDS011;39553;52.954;5.932;2023-05-07T14:15:18;16.90;;;13.07;;
53652;SDS011;39553;52.954;5.932;2023-05-07T14:17:44;15.80;;;12.05;;
53652;SDS011;39553;52.954;5.932;2023-05-07T14:20:12;14.35;;;11.85;;
53652;SDS011;39553;52.954;5.932;2023-05-07T14:22:38;18.55;;;13.05;;
53652;SDS011;39553;52.954;5.932;2023-05-07T14:25:04;15.98;;;11.95;;
53652;SDS011;39553;52.954;5.932;2023-05-07T14:27:30;13.65;;;10.68;;
53652;SDS011;39553;52.954;5.932;2023-05-07T14:29:56;13.30;;;11.15;;
53652;SDS011;39553;52.954;5.932;2023-05-07T14:32:22;15.52;;;10.90;;
53652;SDS011;39553;52.954;5.932;2023-05-07T14:34:48;15.05;;;11.48;;
53652;SDS011;39553;52.954;5.932;2023-05-07T14:37:14;15.98;;;11.35;;
53652;SDS011;39553;52.954;5.932;2023-05-07T14:39:41;13.77;;;11.60;;
53652;SDS011;39553;52.954;5.932;2023-05-07T14:42:07;15.15;;;12.32;;
53652;SDS011;39553;52.954;5.932;2023-05-07T14:44:34;16.63;;;12.63;;
53652;SDS011;39553;52.954;5.932;2023-05-07T14:47:00;12.25;;;10.98;;
53652;SDS011;39553;52.954;5.932;2023-05-07T14:49:26;17.55;;;12.40;;